createdAt,value
2019-03-28T00:01:27.293Z,960.65
2019-03-28T00:03:53.594Z,960.62
2019-03-28T00:06:19.899Z,960.68
2019-03-28T00:08:46.264Z,960.64
2019-03-28T00:11:12.515Z,960.67
2019-03-28T00:13:38.821Z,960.67
2019-03-28T00:16:05.146Z,960.67
2019-03-28T00:18:31.603Z,960.58
2019-03-28T00:20:57.912Z,960.63
2019-03-28T00:23:24.221Z,960.62
2019-03-28T00:25:50.524Z,960.61
2019-03-28T00:28:16.838Z,960.61
2019-03-28T00:30:43.149Z,960.56
2019-03-28T00:33:09.455Z,960.61
2019-03-28T00:35:35.758Z,960.54
2019-03-28T00:38:02.067Z,960.61
2019-03-28T00:40:28.374Z,960.54
2019-03-28T00:42:54.685Z,960.57
2019-03-28T00:45:21.006Z,960.58
2019-03-28T00:47:47.378Z,960.55
2019-03-28T00:50:13.707Z,960.50
2019-03-28T00:52:40.033Z,960.50
2019-03-28T00:55:06.347Z,960.56
2019-03-28T00:57:32.654Z,960.56
2019-03-28T00:59:58.963Z,960.61
2019-03-28T01:02:25.270Z,960.63
2019-03-28T01:04:52.091Z,960.59
2019-03-28T01:07:17.886Z,960.59
2019-03-28T01:09:44.188Z,960.59
2019-03-28T01:12:10.496Z,960.63
2019-03-28T01:14:36.798Z,960.56
2019-03-28T01:17:03.539Z,960.58
2019-03-28T01:19:29.850Z,960.66
2019-03-28T01:21:56.163Z,960.61
2019-03-28T01:24:22.463Z,960.61
2019-03-28T01:26:57.281Z,960.60
2019-03-28T01:29:15.067Z,960.59
2019-03-28T01:31:41.367Z,960.63
2019-03-28T01:34:08.132Z,960.55
2019-03-28T01:36:33.988Z,960.63
2019-03-28T01:39:00.299Z,960.59
2019-03-28T01:41:26.604Z,960.59
2019-03-28T01:43:52.906Z,960.58
2019-03-28T01:46:19.206Z,960.53
2019-03-28T01:48:45.509Z,960.58
2019-03-28T01:51:11.812Z,960.61
2019-03-28T01:53:38.230Z,960.66
2019-03-28T01:56:04.424Z,960.70
2019-03-28T01:58:30.729Z,960.75
2019-03-28T02:00:57.042Z,960.82
2019-03-28T02:03:23.388Z,960.82
2019-03-28T02:05:49.695Z,960.85
2019-03-28T02:08:15.999Z,960.79
2019-03-28T02:10:42.307Z,960.80
2019-03-28T02:13:08.615Z,960.84
2019-03-28T02:15:34.918Z,960.83
2019-03-28T02:18:01.221Z,960.81
2019-03-28T02:20:27.568Z,960.86
2019-03-28T02:22:53.963Z,960.90
2019-03-28T02:25:20.348Z,960.83
2019-03-28T02:27:46.588Z,960.83
2019-03-28T02:30:13.140Z,960.82
2019-03-28T02:32:39.470Z,960.82
2019-03-28T02:35:05.785Z,960.85
2019-03-28T02:37:32.080Z,960.81
2019-03-28T02:39:58.399Z,960.79
2019-03-28T02:42:24.707Z,960.80
2019-03-28T02:44:51.017Z,960.86
2019-03-28T02:47:17.339Z,960.94
2019-03-28T02:49:43.636Z,960.92
2019-03-28T02:52:09.939Z,960.89
2019-03-28T02:54:36.265Z,960.80
2019-03-28T02:57:02.565Z,960.87
2019-03-28T02:59:28.873Z,960.85
2019-03-28T03:01:55.182Z,960.82
2019-03-28T03:04:21.491Z,960.91
2019-03-28T03:06:47.802Z,960.88
2019-03-28T03:09:14.110Z,960.97
2019-03-28T03:11:42.835Z,960.90
2019-03-28T03:14:06.717Z,960.97
2019-03-28T03:16:33.065Z,961.00
2019-03-28T03:18:59.839Z,961.01
2019-03-28T03:21:25.695Z,960.95
2019-03-28T03:23:52.000Z,960.95
2019-03-28T03:26:18.298Z,960.98
2019-03-28T03:28:44.628Z,961.01
2019-03-28T03:31:10.939Z,961.08
2019-03-28T03:33:37.894Z,961.10
2019-03-28T03:36:03.554Z,961.10
2019-03-28T03:38:29.888Z,961.19
2019-03-28T03:40:56.186Z,961.18
2019-03-28T03:43:23.582Z,961.24
2019-03-28T03:45:49.808Z,961.26
2019-03-28T03:48:16.113Z,961.31
2019-03-28T03:50:42.419Z,961.34
2019-03-28T03:53:08.727Z,961.33
2019-03-28T03:55:35.028Z,961.33
2019-03-28T03:58:14.569Z,961.36
2019-03-28T04:00:27.787Z,961.36
2019-03-28T04:02:54.089Z,961.45
2019-03-28T04:05:20.398Z,961.51
2019-03-28T04:07:46.700Z,961.48
2019-03-28T04:10:13.055Z,961.46
2019-03-28T04:12:39.361Z,961.58
2019-03-28T04:15:05.670Z,961.56
2019-03-28T04:17:31.975Z,961.60
2019-03-28T04:19:58.761Z,961.61
2019-03-28T04:22:24.589Z,961.57
2019-03-28T04:24:50.898Z,961.62
2019-03-28T04:27:17.202Z,961.59
2019-03-28T04:29:43.507Z,961.60
2019-03-28T04:32:09.851Z,961.63
2019-03-28T04:34:36.168Z,961.64
2019-03-28T04:37:02.464Z,961.67
2019-03-28T04:39:28.773Z,961.74
2019-03-28T04:41:55.075Z,961.70
2019-03-28T04:44:21.723Z,961.73
2019-03-28T04:46:47.698Z,961.75
2019-03-28T04:49:15.676Z,961.86
2019-03-28T04:51:40.382Z,961.87
2019-03-28T04:54:09.620Z,961.88
2019-03-28T04:56:33.021Z,961.93
2019-03-28T04:58:59.354Z,961.95
2019-03-28T05:01:25.709Z,961.93
2019-03-28T05:03:51.980Z,961.91
2019-03-28T05:06:18.300Z,961.89
2019-03-28T05:08:44.603Z,961.89
2019-03-28T05:11:10.911Z,961.86
2019-03-28T05:13:37.217Z,961.85
2019-03-28T05:16:03.544Z,961.87
2019-03-28T05:18:29.856Z,961.78
2019-03-28T05:20:56.162Z,961.77
2019-03-28T05:23:22.463Z,961.82
2019-03-28T05:25:48.771Z,961.82
2019-03-28T05:28:15.075Z,961.89
2019-03-28T05:30:41.406Z,961.84
2019-03-28T05:33:07.720Z,961.80
2019-03-28T05:35:34.023Z,961.84
2019-03-28T05:38:00.336Z,961.82
2019-03-28T05:40:26.660Z,961.78
2019-03-28T05:42:52.969Z,961.78
2019-03-28T05:45:19.284Z,961.82
2019-03-28T05:47:45.611Z,961.87
2019-03-28T05:50:11.915Z,961.85
2019-03-28T05:52:38.219Z,961.84
2019-03-28T05:55:05.470Z,961.92
2019-03-28T05:57:30.837Z,961.82
2019-03-28T05:59:57.143Z,961.83
2019-03-28T06:02:24.318Z,961.81
2019-03-28T06:04:49.793Z,961.87
2019-03-28T06:07:16.095Z,961.78
2019-03-28T06:09:42.839Z,961.79
2019-03-28T06:12:09.145Z,961.83
2019-03-28T06:14:35.455Z,961.94
2019-03-28T06:17:01.769Z,961.83
2019-03-28T06:19:28.071Z,961.93
2019-03-28T06:21:55.076Z,961.94
2019-03-28T06:24:21.380Z,961.91
2019-03-28T06:26:50.037Z,962.03
2019-03-28T06:29:23.676Z,962.00
2019-03-28T06:31:40.369Z,962.06
2019-03-28T06:34:06.686Z,962.03
2019-03-28T06:36:32.995Z,962.08
2019-03-28T06:38:59.348Z,962.08
2019-03-28T06:41:25.653Z,962.12
2019-03-28T06:43:51.962Z,962.17
2019-03-28T06:46:18.271Z,962.25
2019-03-28T06:48:44.583Z,962.21
2019-03-28T06:51:10.886Z,962.20
2019-03-28T06:53:37.302Z,962.16
2019-03-28T06:56:03.501Z,962.12
2019-03-28T06:58:29.862Z,962.14
2019-03-28T07:00:56.172Z,962.12
2019-03-28T07:03:22.475Z,962.16
2019-03-28T07:05:48.785Z,962.13
2019-03-28T07:08:15.092Z,962.13
2019-03-28T07:10:41.448Z,962.17
2019-03-28T07:13:07.749Z,962.18
2019-03-28T07:15:36.610Z,962.26
2019-03-28T07:18:00.395Z,962.33
2019-03-28T07:20:26.706Z,962.42
2019-03-28T07:22:53.025Z,962.35
2019-03-28T07:25:19.325Z,962.35
2019-03-28T07:27:45.632Z,962.37
2019-03-28T07:30:11.947Z,962.45
2019-03-28T07:32:38.595Z,962.35
2019-03-28T07:35:04.927Z,962.45
2019-03-28T07:37:31.256Z,962.45
2019-03-28T07:39:57.562Z,962.39
2019-03-28T07:42:23.867Z,962.45
2019-03-28T07:44:50.180Z,962.40
2019-03-28T07:47:16.471Z,962.30
2019-03-28T07:49:42.781Z,962.32
2019-03-28T07:52:09.085Z,962.38
2019-03-28T07:54:35.407Z,962.38
2019-03-28T07:57:01.713Z,962.41
2019-03-28T07:59:28.166Z,962.43
2019-03-28T08:01:54.472Z,962.46
2019-03-28T08:04:20.843Z,962.40
2019-03-28T08:06:50.212Z,962.47
2019-03-28T08:09:13.456Z,962.53
2019-03-28T08:11:39.795Z,962.44
2019-03-28T08:14:06.311Z,962.52
2019-03-28T08:16:32.661Z,962.46
2019-03-28T08:18:58.962Z,962.40
2019-03-28T08:21:25.421Z,962.34
2019-03-28T08:23:51.728Z,962.32
2019-03-28T08:26:18.117Z,962.37
2019-03-28T08:28:44.427Z,962.55
2019-03-28T08:31:10.737Z,962.49
2019-03-28T08:33:37.045Z,962.43
2019-03-28T08:36:03.371Z,962.51
2019-03-28T08:38:29.680Z,962.35
2019-03-28T08:40:56.114Z,962.47
2019-03-28T08:43:25.281Z,962.39
2019-03-28T08:45:51.605Z,962.41
2019-03-28T08:48:18.010Z,962.52
2019-03-28T08:50:44.290Z,962.55
2019-03-28T08:53:10.597Z,962.42
2019-03-28T08:55:36.905Z,962.46
2019-03-28T08:58:03.202Z,962.34
2019-03-28T09:03:13.463Z,962.41
2019-03-28T09:05:39.773Z,962.45
2019-03-28T09:08:06.105Z,962.34
2019-03-28T09:10:32.402Z,962.37
2019-03-28T09:15:44.260Z,962.29
2019-03-28T09:18:09.499Z,962.32
2019-03-28T09:20:35.841Z,962.37
2019-03-28T09:23:02.151Z,962.23
2019-03-28T09:25:28.492Z,962.25
2019-03-28T09:27:54.815Z,962.42
2019-03-28T09:30:21.118Z,962.42
2019-03-28T09:32:47.436Z,962.31
2019-03-28T09:35:13.745Z,962.19
2019-03-28T09:37:40.053Z,962.20
2019-03-28T09:40:06.368Z,962.38
2019-03-28T09:42:32.696Z,962.20
2019-03-28T09:44:59.018Z,962.13
2019-03-28T09:47:25.329Z,962.16
2019-03-28T09:49:51.642Z,962.22
2019-03-28T09:52:17.989Z,962.18
2019-03-28T09:54:44.260Z,962.13
2019-03-28T09:57:10.597Z,962.17
2019-03-28T09:59:36.913Z,962.18
2019-03-28T10:02:03.359Z,962.33
2019-03-28T10:04:29.601Z,962.11
2019-03-28T10:06:55.908Z,962.02
2019-03-28T10:09:22.221Z,962.07
2019-03-28T10:11:48.531Z,962.20
2019-03-28T10:14:15.899Z,962.09
2019-03-28T10:16:42.203Z,962.08
2019-03-28T10:19:08.512Z,961.91
2019-03-28T10:21:37.550Z,961.96
2019-03-28T10:24:01.425Z,961.86
2019-03-28T10:26:27.731Z,961.87
2019-03-28T10:28:54.040Z,961.86
2019-03-28T10:31:20.420Z,961.75
2019-03-28T10:33:46.726Z,961.76
2019-03-28T10:36:13.029Z,961.73
2019-03-28T10:38:39.344Z,961.84
2019-03-28T10:41:05.648Z,961.71
2019-03-28T10:43:31.978Z,961.70
2019-03-28T10:45:58.283Z,961.77
2019-03-28T10:48:24.611Z,961.68
2019-03-28T10:50:50.914Z,961.61
2019-03-28T10:53:17.246Z,961.52
2019-03-28T10:55:43.551Z,961.52
2019-03-28T10:58:18.423Z,961.49
2019-03-28T11:00:36.167Z,961.56
2019-03-28T11:03:02.548Z,961.53
2019-03-28T11:05:28.785Z,961.45
2019-03-28T11:07:55.091Z,961.44
2019-03-28T11:10:21.412Z,961.35
2019-03-28T11:12:47.716Z,961.39
2019-03-28T11:15:14.046Z,961.28
2019-03-28T11:17:40.349Z,961.27
2019-03-28T11:20:06.661Z,961.29
2019-03-28T11:22:32.968Z,961.29
2019-03-28T11:24:59.278Z,961.17
2019-03-28T11:27:25.597Z,961.20
2019-03-28T11:29:52.024Z,961.32
2019-03-28T11:32:18.754Z,961.31
2019-03-28T11:34:44.661Z,961.17
2019-03-28T11:37:24.923Z,961.12
2019-03-28T11:39:37.276Z,961.17
2019-03-28T11:42:03.607Z,961.08
2019-03-28T11:44:29.921Z,960.97
2019-03-28T11:46:56.236Z,961.05
2019-03-28T11:49:22.549Z,960.99
2019-03-28T11:51:48.851Z,960.91
2019-03-28T11:54:15.166Z,960.97
2019-03-28T11:56:41.475Z,960.82
2019-03-28T11:59:07.813Z,960.99
2019-03-28T12:01:34.121Z,960.89
2019-03-28T12:04:00.423Z,960.76
2019-03-28T12:06:26.740Z,960.88
2019-03-28T12:08:55.851Z,960.82
2019-03-28T12:11:19.386Z,960.80
2019-03-28T12:13:45.693Z,960.76
2019-03-28T12:16:12.001Z,960.76
2019-03-28T12:18:38.310Z,960.76
2019-03-28T12:21:04.641Z,960.76
2019-03-28T12:23:30.943Z,960.75
2019-03-28T12:25:57.253Z,960.73
2019-03-28T12:28:23.619Z,960.66
2019-03-28T12:30:49.870Z,960.57
2019-03-28T12:33:16.176Z,960.49
2019-03-28T12:35:42.488Z,960.66
2019-03-28T12:38:08.800Z,960.57
2019-03-28T12:40:35.106Z,960.42
2019-03-28T12:43:01.443Z,960.34
2019-03-28T12:45:27.751Z,960.28
2019-03-28T12:47:54.057Z,960.26
2019-03-28T12:50:20.366Z,960.23
2019-03-28T12:52:46.672Z,960.21
2019-03-28T12:55:12.983Z,960.20
2019-03-28T12:57:39.283Z,960.22
2019-03-28T13:00:06.762Z,960.13
2019-03-28T13:02:32.169Z,960.24
2019-03-28T13:04:58.300Z,960.15
2019-03-28T13:07:25.496Z,960.10
2019-03-28T13:09:50.927Z,960.06
2019-03-28T13:12:17.235Z,960.01
2019-03-28T13:14:43.543Z,959.98
2019-03-28T13:17:09.847Z,959.99
2019-03-28T13:19:36.156Z,959.89
2019-03-28T13:22:02.550Z,959.90
2019-03-28T13:24:28.771Z,959.88
2019-03-28T13:26:55.082Z,959.80
2019-03-28T13:29:21.383Z,959.89
2019-03-28T13:31:47.734Z,959.90
2019-03-28T13:34:14.039Z,959.79
2019-03-28T13:36:40.343Z,959.93
2019-03-28T13:39:06.656Z,959.92
2019-03-28T13:41:32.964Z,959.91
2019-03-28T13:43:59.277Z,959.83
2019-03-28T13:46:25.635Z,959.83
2019-03-28T13:48:51.963Z,959.92
2019-03-28T13:51:19.314Z,959.76
2019-03-28T13:53:45.635Z,959.88
2019-03-28T13:56:11.943Z,959.75
2019-03-28T13:58:38.827Z,959.76
2019-03-28T14:01:04.600Z,959.75
2019-03-28T14:03:30.903Z,959.72
2019-03-28T14:05:57.219Z,959.75
2019-03-28T14:08:23.568Z,959.76
2019-03-28T14:10:49.878Z,959.86
2019-03-28T14:13:16.184Z,959.74
2019-03-28T14:15:45.317Z,959.85
2019-03-28T14:18:11.621Z,959.84
2019-03-28T14:20:37.931Z,959.82
2019-03-28T14:23:04.235Z,959.77
2019-03-28T14:25:30.549Z,959.69
2019-03-28T14:27:56.869Z,959.69
2019-03-28T14:30:23.177Z,959.63
2019-03-28T14:32:53.514Z,959.72
2019-03-28T14:35:16.073Z,959.67
2019-03-28T14:37:42.407Z,959.65
2019-03-28T14:40:08.711Z,959.69
2019-03-28T14:42:35.053Z,959.69
2019-03-28T14:45:01.372Z,959.64
2019-03-28T14:47:27.677Z,959.64
2019-03-28T14:49:53.987Z,959.63
2019-03-28T14:52:20.298Z,959.69
2019-03-28T14:54:46.608Z,959.65
2019-03-28T14:57:12.963Z,959.60
2019-03-28T14:59:39.271Z,959.62
2019-03-28T15:02:05.578Z,959.64
2019-03-28T15:04:32.033Z,959.56
2019-03-28T15:06:59.625Z,959.65
2019-03-28T15:09:24.761Z,959.65
2019-03-28T15:11:51.073Z,959.69
2019-03-28T15:14:17.383Z,959.69
2019-03-28T15:16:43.692Z,959.74
2019-03-28T15:19:10.000Z,959.69
2019-03-28T15:21:36.303Z,959.67
2019-03-28T15:24:02.612Z,959.73
2019-03-28T15:26:30.239Z,959.70
2019-03-28T15:28:55.225Z,959.72
2019-03-28T15:31:21.686Z,959.74
2019-03-28T15:33:47.850Z,959.70
2019-03-28T15:36:14.420Z,959.74
2019-03-28T15:38:40.774Z,959.74
2019-03-28T15:41:07.085Z,959.65
2019-03-28T15:43:33.394Z,959.82
2019-03-28T15:45:59.763Z,959.88
2019-03-28T15:48:26.013Z,959.86
2019-03-28T15:50:52.378Z,959.92
2019-03-28T15:53:18.686Z,959.94
2019-03-28T15:55:44.993Z,959.98
2019-03-28T15:58:22.525Z,960.02
2019-03-28T16:00:37.608Z,959.93
2019-03-28T16:03:03.915Z,960.00
2019-03-28T16:05:30.219Z,960.03
2019-03-28T16:07:59.188Z,959.98
2019-03-28T16:10:22.839Z,960.07
2019-03-28T16:12:49.147Z,960.05
2019-03-28T16:15:16.522Z,960.06
2019-03-28T16:17:42.837Z,960.05
2019-03-28T16:20:09.144Z,960.07
2019-03-28T16:22:35.452Z,960.05
2019-03-28T16:25:01.758Z,960.07
2019-03-28T16:27:28.134Z,960.12
2019-03-28T16:29:54.587Z,960.05
2019-03-28T16:32:20.768Z,960.03
2019-03-28T16:34:47.114Z,960.03
2019-03-28T16:37:13.447Z,960.08
2019-03-28T16:39:39.755Z,960.02
2019-03-28T16:42:06.092Z,960.16
2019-03-28T16:44:32.367Z,960.08
2019-03-28T16:46:58.680Z,960.04
2019-03-28T16:49:24.995Z,960.14
2019-03-28T16:51:51.820Z,960.16
2019-03-28T16:54:17.642Z,960.16
2019-03-28T16:56:43.943Z,960.18
2019-03-28T16:59:10.256Z,960.16
2019-03-28T17:01:36.563Z,960.19
2019-03-28T17:04:02.878Z,960.21
2019-03-28T17:06:29.185Z,960.23
2019-03-28T17:08:55.487Z,960.22
2019-03-28T17:11:21.800Z,960.23
2019-03-28T17:13:48.102Z,960.31
2019-03-28T17:16:14.451Z,960.34
2019-03-28T17:18:40.750Z,960.34
2019-03-28T17:21:07.106Z,960.38
2019-03-28T17:23:33.476Z,960.37
2019-03-28T17:25:59.888Z,960.39
2019-03-28T17:28:26.232Z,960.46
2019-03-28T17:30:53.187Z,960.47
2019-03-28T17:33:18.881Z,960.43
2019-03-28T17:35:45.235Z,960.47
2019-03-28T17:38:11.603Z,960.50
2019-03-28T17:40:37.948Z,960.54
2019-03-28T17:43:04.290Z,960.54
2019-03-28T17:45:30.635Z,960.52
2019-03-28T17:47:56.974Z,960.54
2019-03-28T17:50:23.270Z,960.55
2019-03-28T17:52:49.706Z,960.59
2019-03-28T17:55:16.048Z,960.58
2019-03-28T17:57:42.392Z,960.64
2019-03-28T18:00:08.735Z,960.67
2019-03-28T18:02:35.076Z,960.69
2019-03-28T18:05:09.182Z,960.68
2019-03-28T18:07:27.795Z,960.75
2019-03-28T18:09:53.989Z,960.75
2019-03-28T18:12:20.308Z,960.80
2019-03-28T18:14:46.636Z,960.92
2019-03-28T18:17:12.940Z,960.90
2019-03-28T18:19:39.246Z,960.87
2019-03-28T18:22:05.555Z,960.89
2019-03-28T18:24:31.877Z,960.95
2019-03-28T18:26:58.187Z,960.99
2019-03-28T18:29:24.491Z,960.93
2019-03-28T18:31:52.614Z,960.93
2019-03-28T18:34:17.120Z,960.99
2019-03-28T18:36:43.487Z,961.07
2019-03-28T18:39:09.807Z,961.02
2019-03-28T18:41:36.199Z,960.92
2019-03-28T18:44:02.572Z,961.03
2019-03-28T18:46:28.878Z,961.08
2019-03-28T18:48:55.180Z,961.02
2019-03-28T18:51:21.484Z,961.11
2019-03-28T18:53:47.797Z,961.07
2019-03-28T18:56:14.155Z,961.07
2019-03-28T18:58:40.570Z,961.13
2019-03-28T19:01:06.879Z,961.06
2019-03-28T19:03:33.201Z,961.16
2019-03-28T19:05:59.715Z,961.09
2019-03-28T19:08:26.017Z,961.21
2019-03-28T19:10:52.320Z,961.15
2019-03-28T19:13:18.626Z,961.22
2019-03-28T19:15:44.935Z,961.19
2019-03-28T19:18:11.242Z,961.20
2019-03-28T19:20:37.547Z,961.23
2019-03-28T19:23:06.995Z,961.21
2019-03-28T19:25:30.188Z,961.28
2019-03-28T19:27:56.501Z,961.23
2019-03-28T19:30:22.801Z,961.19
2019-03-28T19:32:49.149Z,961.23
2019-03-28T19:35:15.402Z,961.23
2019-03-28T19:37:41.947Z,961.26
2019-03-28T19:40:08.266Z,961.26
2019-03-28T19:42:34.706Z,961.29
2019-03-28T19:45:01.045Z,961.33
2019-03-28T19:47:28.735Z,961.36
2019-03-28T19:49:53.650Z,961.33
2019-03-28T19:52:19.989Z,961.32
2019-03-28T19:54:46.310Z,961.38
2019-03-28T19:57:13.178Z,961.37
2019-03-28T19:59:38.923Z,961.37
2019-03-28T20:02:05.239Z,961.34
2019-03-28T20:04:31.723Z,961.44
2019-03-28T20:06:58.052Z,961.38
2019-03-28T20:09:24.439Z,961.43
2019-03-28T20:11:50.743Z,961.38
2019-03-28T20:14:17.106Z,961.43
2019-03-28T20:16:43.416Z,961.33
2019-03-28T20:19:09.730Z,961.33
2019-03-28T20:21:36.063Z,961.36
2019-03-28T20:24:02.381Z,961.48
2019-03-28T20:26:29.755Z,961.47
2019-03-28T20:28:55.444Z,961.33
2019-03-28T20:31:21.765Z,961.26
2019-03-28T20:33:48.074Z,961.29
2019-03-28T20:36:36.437Z,961.33
2019-03-28T20:38:40.706Z,961.42
2019-03-28T20:41:07.067Z,961.34
2019-03-28T20:43:33.377Z,961.38
2019-03-28T20:45:59.680Z,961.38
2019-03-28T20:48:26.219Z,961.38
2019-03-28T20:50:52.527Z,961.46
2019-03-28T20:53:18.835Z,961.43
2019-03-28T20:55:45.236Z,961.43
2019-03-28T20:58:11.469Z,961.49
2019-03-28T21:00:38.919Z,961.44
2019-03-28T21:03:04.092Z,961.52
2019-03-28T21:05:30.393Z,961.41
2019-03-28T21:07:56.736Z,961.34
2019-03-28T21:10:23.046Z,961.41
2019-03-28T21:12:49.409Z,961.43
2019-03-28T21:15:15.710Z,961.49
2019-03-28T21:17:42.034Z,961.45
2019-03-28T21:20:08.331Z,961.52
2019-03-28T21:22:34.637Z,961.56
2019-03-28T21:25:01.860Z,961.61
2019-03-28T21:27:28.164Z,961.63
2019-03-28T21:29:54.486Z,961.65
2019-03-28T21:32:20.874Z,961.63
2019-03-28T21:34:47.210Z,961.64
2019-03-28T21:37:13.521Z,961.59
2019-03-28T21:39:40.324Z,961.59
2019-03-28T21:42:07.384Z,961.55
2019-03-28T21:44:32.561Z,961.60
2019-03-28T21:46:58.915Z,961.53
2019-03-28T21:49:25.181Z,961.57
2019-03-28T21:51:51.491Z,961.58
2019-03-28T21:54:17.834Z,961.57
2019-03-28T21:56:44.158Z,961.57
2019-03-28T21:59:10.467Z,961.62
2019-03-28T22:01:36.801Z,961.65
2019-03-28T22:04:03.106Z,961.69
2019-03-28T22:06:42.096Z,961.60
2019-03-28T22:08:55.722Z,961.57
2019-03-28T22:11:22.025Z,961.62
2019-03-28T22:13:48.326Z,961.66
2019-03-28T22:16:14.631Z,961.63
2019-03-28T22:18:40.938Z,961.64
2019-03-28T22:21:07.243Z,961.64
2019-03-28T22:23:33.592Z,961.74
2019-03-28T22:25:59.899Z,961.75
2019-03-28T22:28:26.264Z,961.74
2019-03-28T22:30:52.578Z,961.76
2019-03-28T22:33:18.895Z,961.76
2019-03-28T22:35:45.197Z,961.80
2019-03-28T22:38:11.499Z,961.79
2019-03-28T22:40:37.880Z,961.82
2019-03-28T22:43:04.267Z,961.87
2019-03-28T22:45:30.595Z,961.92
2019-03-28T22:48:09.788Z,961.87
2019-03-28T22:50:23.953Z,961.87
2019-03-28T22:52:49.551Z,961.94
2019-03-28T22:55:15.878Z,961.90
2019-03-28T22:57:42.182Z,961.88
2019-03-28T23:00:08.482Z,961.89
2019-03-28T23:02:34.801Z,961.97
2019-03-28T23:05:01.110Z,962.02
2019-03-28T23:07:27.431Z,961.99
2019-03-28T23:09:53.735Z,962.04
2019-03-28T23:12:20.066Z,961.95
2019-03-28T23:14:46.366Z,961.98
2019-03-28T23:17:12.695Z,962.05
2019-03-28T23:19:38.970Z,962.00
2019-03-28T23:22:05.273Z,962.09
2019-03-28T23:24:31.582Z,962.06
2019-03-28T23:26:57.878Z,962.04
2019-03-28T23:29:24.187Z,961.99
2019-03-28T23:31:50.814Z,961.98
2019-03-28T23:34:16.827Z,962.06
2019-03-28T23:36:43.145Z,961.96
2019-03-28T23:39:09.683Z,962.02
2019-03-28T23:41:35.986Z,961.92
2019-03-28T23:44:02.303Z,962.00
2019-03-28T23:46:28.621Z,962.04
2019-03-28T23:48:54.922Z,962.11
2019-03-28T23:51:21.273Z,962.00
2019-03-28T23:53:47.578Z,962.05
2019-03-28T23:56:14.018Z,962.06
2019-03-28T23:58:40.325Z,962.00
